sensor_id;sensor_type;location;lat;lon;timestamp;P1;durP1;ratioP1;P2;durP2;ratioP2
8312;SDS011;4194;43.408;24.626;2024-02-28T00:00:28;25.07;;;14.83;;
8312;SDS011;4194;43.408;24.626;2024-02-28T00:02:54;30.27;;;12.87;;
8312;SDS011;4194;43.408;24.626;2024-02-28T00:05:20;25.70;;;12.50;;
8312;SDS011;4194;43.408;24.626;2024-02-28T00:07:45;24.80;;;11.63;;
8312;SDS011;4194;43.408;24.626;2024-02-28T00:10:12;19.77;;;11.20;;
8312;SDS011;4194;43.408;24.626;2024-02-28T00:12:38;25.92;;;13.15;;
8312;SDS011;4194;43.408;24.626;2024-02-28T00:15:04;24.23;;;11.73;;
8312;SDS011;4194;43.408;24.626;2024-02-28T00:17:35;19.37;;;11.60;;
8312;SDS011;4194;43.408;24.626;2024-02-28T00:20:06;20.57;;;10.43;;
8312;SDS011;4194;43.408;24.626;2024-02-28T00:22:34;20.97;;;12.27;;
8312;SDS011;4194;43.408;24.626;2024-02-28T00:25:00;20.13;;;11.30;;
8312;SDS011;4194;43.408;24.626;2024-02-28T00:27:27;25.17;;;10.77;;
8312;SDS011;4194;43.408;24.626;2024-02-28T00:29:53;18.97;;;9.83;;
8312;SDS011;4194;43.408;24.626;2024-02-28T00:32:19;15.77;;;9.23;;
8312;SDS011;4194;43.408;24.626;2024-02-28T00:34:45;19.57;;;9.47;;
8312;SDS011;4194;43.408;24.626;2024-02-28T00:37:10;18.03;;;10.47;;
8312;SDS011;4194;43.408;24.626;2024-02-28T00:39:36;18.63;;;10.33;;
8312;SDS011;4194;43.408;24.626;2024-02-28T00:42:02;21.53;;;9.63;;
8312;SDS011;4194;43.408;24.626;2024-02-28T00:44:27;17.03;;;8.87;;
8312;SDS011;4194;43.408;24.626;2024-02-28T00:46:53;20.23;;;9.80;;
8312;SDS011;4194;43.408;24.626;2024-02-28T00:49:19;19.80;;;10.47;;
8312;SDS011;4194;43.408;24.626;2024-02-28T00:51:45;19.90;;;10.10;;
8312;SDS011;4194;43.408;24.626;2024-02-28T00:54:11;17.17;;;8.93;;
8312;SDS011;4194;43.408;24.626;2024-02-28T00:56:37;18.33;;;8.70;;
8312;SDS011;4194;43.408;24.626;2024-02-28T00:59:03;20.03;;;9.07;;
8312;SDS011;4194;43.408;24.626;2024-02-28T01:01:28;20.43;;;8.53;;
8312;SDS011;4194;43.408;24.626;2024-02-28T01:03:54;18.07;;;8.40;;
8312;SDS011;4194;43.408;24.626;2024-02-28T01:06:20;18.43;;;8.53;;
8312;SDS011;4194;43.408;24.626;2024-02-28T01:08:45;19.30;;;9.33;;
8312;SDS011;4194;43.408;24.626;2024-02-28T01:11:11;22.27;;;9.50;;
8312;SDS011;4194;43.408;24.626;2024-02-28T01:13:36;17.33;;;8.00;;
8312;SDS011;4194;43.408;24.626;2024-02-28T01:16:02;14.50;;;9.20;;
8312;SDS011;4194;43.408;24.626;2024-02-28T01:18:28;17.77;;;9.23;;
8312;SDS011;4194;43.408;24.626;2024-02-28T01:20:56;16.17;;;9.27;;
8312;SDS011;4194;43.408;24.626;2024-02-28T01:23:21;17.70;;;9.07;;
8312;SDS011;4194;43.408;24.626;2024-02-28T01:25:48;22.77;;;9.20;;
8312;SDS011;4194;43.408;24.626;2024-02-28T01:28:13;19.43;;;9.80;;
8312;SDS011;4194;43.408;24.626;2024-02-28T01:30:39;23.27;;;10.50;;
8312;SDS011;4194;43.408;24.626;2024-02-28T01:33:05;17.33;;;9.33;;
8312;SDS011;4194;43.408;24.626;2024-02-28T01:35:30;15.03;;;9.93;;
8312;SDS011;4194;43.408;24.626;2024-02-28T01:37:56;18.17;;;10.47;;
8312;SDS011;4194;43.408;24.626;2024-02-28T01:40:22;18.70;;;9.37;;
8312;SDS011;4194;43.408;24.626;2024-02-28T01:42:47;21.57;;;9.47;;
8312;SDS011;4194;43.408;24.626;2024-02-28T01:45:13;22.37;;;9.73;;
8312;SDS011;4194;43.408;24.626;2024-02-28T01:47:40;20.53;;;10.63;;
8312;SDS011;4194;43.408;24.626;2024-02-28T01:50:07;19.80;;;10.70;;
8312;SDS011;4194;43.408;24.626;2024-02-28T01:52:34;20.10;;;11.17;;
8312;SDS011;4194;43.408;24.626;2024-02-28T01:55:01;20.27;;;10.10;;
8312;SDS011;4194;43.408;24.626;2024-02-28T01:57:27;22.17;;;11.20;;
8312;SDS011;4194;43.408;24.626;2024-02-28T01:59:54;16.00;;;9.83;;
8312;SDS011;4194;43.408;24.626;2024-02-28T02:02:21;19.97;;;10.20;;
8312;SDS011;4194;43.408;24.626;2024-02-28T02:04:46;19.90;;;10.47;;
8312;SDS011;4194;43.408;24.626;2024-02-28T02:07:12;18.53;;;10.20;;
8312;SDS011;4194;43.408;24.626;2024-02-28T02:09:38;17.57;;;9.37;;
8312;SDS011;4194;43.408;24.626;2024-02-28T02:12:04;19.10;;;9.73;;
8312;SDS011;4194;43.408;24.626;2024-02-28T02:14:30;22.60;;;10.77;;
8312;SDS011;4194;43.408;24.626;2024-02-28T02:16:56;18.63;;;10.43;;
8312;SDS011;4194;43.408;24.626;2024-02-28T02:19:21;15.43;;;9.93;;
8312;SDS011;4194;43.408;24.626;2024-02-28T02:21:49;17.60;;;10.47;;
8312;SDS011;4194;43.408;24.626;2024-02-28T02:24:17;22.97;;;10.83;;
8312;SDS011;4194;43.408;24.626;2024-02-28T02:26:43;17.40;;;10.73;;
8312;SDS011;4194;43.408;24.626;2024-02-28T02:29:11;20.17;;;10.40;;
8312;SDS011;4194;43.408;24.626;2024-02-28T02:31:38;22.47;;;10.73;;
8312;SDS011;4194;43.408;24.626;2024-02-28T02:34:03;19.97;;;10.33;;
8312;SDS011;4194;43.408;24.626;2024-02-28T02:36:29;24.20;;;11.63;;
8312;SDS011;4194;43.408;24.626;2024-02-28T02:38:55;21.43;;;9.90;;
8312;SDS011;4194;43.408;24.626;2024-02-28T02:41:21;19.20;;;11.10;;
8312;SDS011;4194;43.408;24.626;2024-02-28T02:43:46;19.87;;;11.10;;
8312;SDS011;4194;43.408;24.626;2024-02-28T02:46:12;21.77;;;11.93;;
8312;SDS011;4194;43.408;24.626;2024-02-28T02:48:38;22.10;;;11.63;;
8312;SDS011;4194;43.408;24.626;2024-02-28T02:51:03;19.77;;;13.00;;
8312;SDS011;4194;43.408;24.626;2024-02-28T02:53:29;25.80;;;12.97;;
8312;SDS011;4194;43.408;24.626;2024-02-28T02:55:54;26.53;;;14.87;;
8312;SDS011;4194;43.408;24.626;2024-02-28T02:58:20;25.63;;;15.73;;
8312;SDS011;4194;43.408;24.626;2024-02-28T03:00:46;30.17;;;16.23;;
8312;SDS011;4194;43.408;24.626;2024-02-28T03:03:12;34.83;;;16.37;;
8312;SDS011;4194;43.408;24.626;2024-02-28T03:05:38;27.07;;;14.83;;
8312;SDS011;4194;43.408;24.626;2024-02-28T03:08:03;28.63;;;14.10;;
8312;SDS011;4194;43.408;24.626;2024-02-28T03:10:29;29.47;;;14.63;;
8312;SDS011;4194;43.408;24.626;2024-02-28T03:12:55;20.13;;;13.27;;
8312;SDS011;4194;43.408;24.626;2024-02-28T03:15:20;31.37;;;13.83;;
8312;SDS011;4194;43.408;24.626;2024-02-28T03:17:46;26.47;;;14.00;;
8312;SDS011;4194;43.408;24.626;2024-02-28T03:20:12;26.27;;;13.87;;
8312;SDS011;4194;43.408;24.626;2024-02-28T03:22:40;22.03;;;13.00;;
8312;SDS011;4194;43.408;24.626;2024-02-28T03:25:06;26.87;;;13.03;;
8312;SDS011;4194;43.408;24.626;2024-02-28T03:27:32;25.73;;;11.57;;
8312;SDS011;4194;43.408;24.626;2024-02-28T03:29:58;25.30;;;12.40;;
8312;SDS011;4194;43.408;24.626;2024-02-28T03:32:24;19.70;;;11.07;;
8312;SDS011;4194;43.408;24.626;2024-02-28T03:34:50;24.80;;;13.50;;
8312;SDS011;4194;43.408;24.626;2024-02-28T03:37:15;26.03;;;13.07;;
8312;SDS011;4194;43.408;24.626;2024-02-28T03:39:41;27.90;;;13.90;;
8312;SDS011;4194;43.408;24.626;2024-02-28T03:42:07;27.33;;;14.47;;
8312;SDS011;4194;43.408;24.626;2024-02-28T03:44:32;29.10;;;14.77;;
8312;SDS011;4194;43.408;24.626;2024-02-28T03:46:58;26.83;;;13.53;;
8312;SDS011;4194;43.408;24.626;2024-02-28T03:49:24;26.03;;;13.47;;
8312;SDS011;4194;43.408;24.626;2024-02-28T03:51:49;31.50;;;14.60;;
8312;SDS011;4194;43.408;24.626;2024-02-28T03:54:15;29.33;;;14.00;;
8312;SDS011;4194;43.408;24.626;2024-02-28T03:56:41;23.03;;;12.93;;
8312;SDS011;4194;43.408;24.626;2024-02-28T03:59:06;24.10;;;13.60;;
8312;SDS011;4194;43.408;24.626;2024-02-28T04:01:32;31.80;;;13.70;;
8312;SDS011;4194;43.408;24.626;2024-02-28T04:03:58;30.07;;;12.53;;
8312;SDS011;4194;43.408;24.626;2024-02-28T04:06:24;35.47;;;17.17;;
8312;SDS011;4194;43.408;24.626;2024-02-28T04:08:50;37.87;;;20.23;;
8312;SDS011;4194;43.408;24.626;2024-02-28T04:11:16;42.60;;;21.23;;
8312;SDS011;4194;43.408;24.626;2024-02-28T04:13:41;42.10;;;22.70;;
8312;SDS011;4194;43.408;24.626;2024-02-28T04:16:08;50.03;;;23.23;;
8312;SDS011;4194;43.408;24.626;2024-02-28T04:18:35;50.30;;;22.10;;
8312;SDS011;4194;43.408;24.626;2024-02-28T04:21:00;43.87;;;21.83;;
8312;SDS011;4194;43.408;24.626;2024-02-28T04:23:26;37.30;;;19.37;;
8312;SDS011;4194;43.408;24.626;2024-02-28T04:25:52;43.87;;;19.90;;
8312;SDS011;4194;43.408;24.626;2024-02-28T04:28:17;44.20;;;22.00;;
8312;SDS011;4194;43.408;24.626;2024-02-28T04:30:43;51.00;;;22.67;;
8312;SDS011;4194;43.408;24.626;2024-02-28T04:33:09;51.93;;;22.77;;
8312;SDS011;4194;43.408;24.626;2024-02-28T04:35:34;34.57;;;16.53;;
8312;SDS011;4194;43.408;24.626;2024-02-28T04:38:00;32.60;;;15.97;;
8312;SDS011;4194;43.408;24.626;2024-02-28T04:40:26;31.77;;;16.40;;
8312;SDS011;4194;43.408;24.626;2024-02-28T04:42:51;29.73;;;16.43;;
8312;SDS011;4194;43.408;24.626;2024-02-28T04:45:17;29.13;;;16.70;;
8312;SDS011;4194;43.408;24.626;2024-02-28T04:47:43;35.73;;;16.60;;
8312;SDS011;4194;43.408;24.626;2024-02-28T04:50:09;36.43;;;16.77;;
8312;SDS011;4194;43.408;24.626;2024-02-28T04:52:35;33.90;;;15.33;;
8312;SDS011;4194;43.408;24.626;2024-02-28T04:55:01;33.37;;;16.97;;
8312;SDS011;4194;43.408;24.626;2024-02-28T04:57:27;39.77;;;17.47;;
8312;SDS011;4194;43.408;24.626;2024-02-28T04:59:53;33.27;;;17.40;;
8312;SDS011;4194;43.408;24.626;2024-02-28T05:02:18;36.63;;;17.77;;
8312;SDS011;4194;43.408;24.626;2024-02-28T05:04:47;35.60;;;19.13;;
8312;SDS011;4194;43.408;24.626;2024-02-28T05:07:12;35.83;;;18.93;;
8312;SDS011;4194;43.408;24.626;2024-02-28T05:09:38;41.07;;;21.17;;
8312;SDS011;4194;43.408;24.626;2024-02-28T05:12:04;47.00;;;21.73;;
8312;SDS011;4194;43.408;24.626;2024-02-28T05:14:30;46.97;;;23.93;;
8312;SDS011;4194;43.408;24.626;2024-02-28T05:16:55;46.17;;;22.53;;
8312;SDS011;4194;43.408;24.626;2024-02-28T05:19:21;56.23;;;25.33;;
8312;SDS011;4194;43.408;24.626;2024-02-28T05:21:47;54.87;;;25.57;;
8312;SDS011;4194;43.408;24.626;2024-02-28T05:24:13;73.43;;;27.03;;
8312;SDS011;4194;43.408;24.626;2024-02-28T05:26:39;56.80;;;27.90;;
8312;SDS011;4194;43.408;24.626;2024-02-28T05:29:05;61.23;;;27.90;;
8312;SDS011;4194;43.408;24.626;2024-02-28T05:31:31;52.10;;;25.87;;
8312;SDS011;4194;43.408;24.626;2024-02-28T05:33:57;55.80;;;26.30;;
8312;SDS011;4194;43.408;24.626;2024-02-28T05:36:24;62.07;;;27.90;;
8312;SDS011;4194;43.408;24.626;2024-02-28T05:38:51;63.53;;;28.63;;
8312;SDS011;4194;43.408;24.626;2024-02-28T05:41:18;67.90;;;27.30;;
8312;SDS011;4194;43.408;24.626;2024-02-28T05:43:44;56.70;;;27.37;;
8312;SDS011;4194;43.408;24.626;2024-02-28T05:46:13;57.70;;;27.07;;
8312;SDS011;4194;43.408;24.626;2024-02-28T05:48:42;49.70;;;26.53;;
8312;SDS011;4194;43.408;24.626;2024-02-28T05:51:09;58.53;;;29.40;;
8312;SDS011;4194;43.408;24.626;2024-02-28T05:53:35;56.67;;;29.47;;
8312;SDS011;4194;43.408;24.626;2024-02-28T05:56:02;59.50;;;30.07;;
8312;SDS011;4194;43.408;24.626;2024-02-28T05:58:28;72.83;;;30.10;;
8312;SDS011;4194;43.408;24.626;2024-02-28T06:00:54;66.13;;;30.53;;
8312;SDS011;4194;43.408;24.626;2024-02-28T06:03:20;67.20;;;32.80;;
8312;SDS011;4194;43.408;24.626;2024-02-28T06:05:45;66.50;;;32.37;;
8312;SDS011;4194;43.408;24.626;2024-02-28T06:08:12;60.50;;;30.23;;
8312;SDS011;4194;43.408;24.626;2024-02-28T06:10:38;59.47;;;30.90;;
8312;SDS011;4194;43.408;24.626;2024-02-28T06:13:03;47.93;;;27.77;;
8312;SDS011;4194;43.408;24.626;2024-02-28T06:15:29;47.87;;;28.37;;
8312;SDS011;4194;43.408;24.626;2024-02-28T06:17:56;42.77;;;26.13;;
8312;SDS011;4194;43.408;24.626;2024-02-28T06:20:23;46.80;;;27.77;;
8312;SDS011;4194;43.408;24.626;2024-02-28T06:22:49;45.97;;;27.67;;
8312;SDS011;4194;43.408;24.626;2024-02-28T06:25:14;46.73;;;27.43;;
8312;SDS011;4194;43.408;24.626;2024-02-28T06:27:44;51.60;;;27.83;;
8312;SDS011;4194;43.408;24.626;2024-02-28T06:30:11;48.80;;;27.53;;
8312;SDS011;4194;43.408;24.626;2024-02-28T06:32:40;51.73;;;28.73;;
8312;SDS011;4194;43.408;24.626;2024-02-28T06:35:08;49.37;;;27.70;;
8312;SDS011;4194;43.408;24.626;2024-02-28T06:37:34;50.73;;;28.47;;
8312;SDS011;4194;43.408;24.626;2024-02-28T06:40:00;52.20;;;28.80;;
8312;SDS011;4194;43.408;24.626;2024-02-28T06:42:29;50.47;;;27.13;;
8312;SDS011;4194;43.408;24.626;2024-02-28T06:44:55;45.47;;;26.27;;
8312;SDS011;4194;43.408;24.626;2024-02-28T06:47:20;46.20;;;27.67;;
8312;SDS011;4194;43.408;24.626;2024-02-28T06:49:46;51.33;;;28.30;;
8312;SDS011;4194;43.408;24.626;2024-02-28T06:52:13;41.13;;;27.30;;
8312;SDS011;4194;43.408;24.626;2024-02-28T06:54:39;44.70;;;27.43;;
8312;SDS011;4194;43.408;24.626;2024-02-28T06:57:05;45.37;;;26.90;;
8312;SDS011;4194;43.408;24.626;2024-02-28T06:59:30;43.73;;;27.33;;
8312;SDS011;4194;43.408;24.626;2024-02-28T07:01:56;45.00;;;26.30;;
8312;SDS011;4194;43.408;24.626;2024-02-28T07:04:22;48.93;;;27.40;;
8312;SDS011;4194;43.408;24.626;2024-02-28T07:06:47;42.20;;;28.00;;
8312;SDS011;4194;43.408;24.626;2024-02-28T07:09:14;40.23;;;25.17;;
8312;SDS011;4194;43.408;24.626;2024-02-28T07:11:40;37.60;;;23.23;;
8312;SDS011;4194;43.408;24.626;2024-02-28T07:14:06;36.73;;;24.27;;
8312;SDS011;4194;43.408;24.626;2024-02-28T07:16:32;36.80;;;24.53;;
8312;SDS011;4194;43.408;24.626;2024-02-28T07:18:59;36.37;;;22.87;;
8312;SDS011;4194;43.408;24.626;2024-02-28T07:21:28;38.80;;;23.07;;
8312;SDS011;4194;43.408;24.626;2024-02-28T07:23:55;30.90;;;21.10;;
8312;SDS011;4194;43.408;24.626;2024-02-28T07:26:21;37.80;;;21.93;;
8312;SDS011;4194;43.408;24.626;2024-02-28T07:28:47;31.40;;;21.03;;
8312;SDS011;4194;43.408;24.626;2024-02-28T07:31:15;30.93;;;20.60;;
8312;SDS011;4194;43.408;24.626;2024-02-28T07:33:43;32.53;;;20.70;;
8312;SDS011;4194;43.408;24.626;2024-02-28T07:36:10;32.00;;;21.40;;
8312;SDS011;4194;43.408;24.626;2024-02-28T07:38:36;32.00;;;20.07;;
8312;SDS011;4194;43.408;24.626;2024-02-28T07:41:02;29.23;;;20.03;;
8312;SDS011;4194;43.408;24.626;2024-02-28T07:43:28;30.73;;;19.70;;
8312;SDS011;4194;43.408;24.626;2024-02-28T07:45:57;30.20;;;19.53;;
8312;SDS011;4194;43.408;24.626;2024-02-28T07:48:23;27.63;;;19.47;;
8312;SDS011;4194;43.408;24.626;2024-02-28T07:50:49;27.93;;;19.63;;
8312;SDS011;4194;43.408;24.626;2024-02-28T07:53:15;33.53;;;20.13;;
8312;SDS011;4194;43.408;24.626;2024-02-28T07:55:41;29.83;;;20.93;;
8312;SDS011;4194;43.408;24.626;2024-02-28T07:58:07;34.60;;;21.67;;
8312;SDS011;4194;43.408;24.626;2024-02-28T08:00:34;30.90;;;19.77;;
8312;SDS011;4194;43.408;24.626;2024-02-28T08:03:00;29.57;;;19.73;;
8312;SDS011;4194;43.408;24.626;2024-02-28T08:05:25;34.03;;;21.23;;
8312;SDS011;4194;43.408;24.626;2024-02-28T08:07:51;29.13;;;19.20;;
8312;SDS011;4194;43.408;24.626;2024-02-28T08:10:17;29.43;;;19.53;;
8312;SDS011;4194;43.408;24.626;2024-02-28T08:12:43;24.93;;;17.93;;
8312;SDS011;4194;43.408;24.626;2024-02-28T08:15:09;29.67;;;18.90;;
8312;SDS011;4194;43.408;24.626;2024-02-28T08:17:35;29.13;;;19.33;;
8312;SDS011;4194;43.408;24.626;2024-02-28T08:20:02;27.37;;;18.97;;
8312;SDS011;4194;43.408;24.626;2024-02-28T08:22:30;25.77;;;18.33;;
8312;SDS011;4194;43.408;24.626;2024-02-28T08:24:56;26.73;;;18.13;;
8312;SDS011;4194;43.408;24.626;2024-02-28T08:27:22;29.10;;;18.33;;
8312;SDS011;4194;43.408;24.626;2024-02-28T08:29:49;23.40;;;17.93;;
8312;SDS011;4194;43.408;24.626;2024-02-28T08:32:15;28.23;;;18.57;;
8312;SDS011;4194;43.408;24.626;2024-02-28T08:34:47;23.57;;;17.90;;
8312;SDS011;4194;43.408;24.626;2024-02-28T08:37:13;26.60;;;18.93;;
8312;SDS011;4194;43.408;24.626;2024-02-28T08:39:38;28.73;;;18.93;;
8312;SDS011;4194;43.408;24.626;2024-02-28T08:42:05;27.30;;;17.03;;
8312;SDS011;4194;43.408;24.626;2024-02-28T08:44:31;25.03;;;16.90;;
8312;SDS011;4194;43.408;24.626;2024-02-28T08:46:56;27.83;;;17.80;;
8312;SDS011;4194;43.408;24.626;2024-02-28T08:49:22;31.67;;;17.27;;
8312;SDS011;4194;43.408;24.626;2024-02-28T08:51:48;28.00;;;18.53;;
8312;SDS011;4194;43.408;24.626;2024-02-28T08:54:14;27.50;;;17.70;;
8312;SDS011;4194;43.408;24.626;2024-02-28T08:56:39;24.80;;;17.60;;
8312;SDS011;4194;43.408;24.626;2024-02-28T08:59:05;25.53;;;17.83;;
8312;SDS011;4194;43.408;24.626;2024-02-28T09:01:31;29.63;;;20.60;;
8312;SDS011;4194;43.408;24.626;2024-02-28T09:03:59;29.43;;;19.10;;
8312;SDS011;4194;43.408;24.626;2024-02-28T09:06:25;30.87;;;18.97;;
8312;SDS011;4194;43.408;24.626;2024-02-28T09:08:51;28.40;;;18.90;;
8312;SDS011;4194;43.408;24.626;2024-02-28T09:11:16;26.23;;;18.27;;
8312;SDS011;4194;43.408;24.626;2024-02-28T09:13:42;32.57;;;19.70;;
8312;SDS011;4194;43.408;24.626;2024-02-28T09:16:08;31.87;;;20.03;;
8312;SDS011;4194;43.408;24.626;2024-02-28T09:18:33;37.80;;;25.00;;
8312;SDS011;4194;43.408;24.626;2024-02-28T09:20:59;34.60;;;19.83;;
8312;SDS011;4194;43.408;24.626;2024-02-28T09:23:25;32.33;;;17.77;;
8312;SDS011;4194;43.408;24.626;2024-02-28T09:25:50;32.20;;;18.63;;
8312;SDS011;4194;43.408;24.626;2024-02-28T09:28:16;29.17;;;20.10;;
8312;SDS011;4194;43.408;24.626;2024-02-28T09:30:42;31.77;;;20.93;;
8312;SDS011;4194;43.408;24.626;2024-02-28T09:33:08;31.77;;;20.23;;
8312;SDS011;4194;43.408;24.626;2024-02-28T09:35:34;28.63;;;19.90;;
8312;SDS011;4194;43.408;24.626;2024-02-28T09:38:01;28.67;;;20.00;;
8312;SDS011;4194;43.408;24.626;2024-02-28T09:40:27;33.93;;;20.27;;
8312;SDS011;4194;43.408;24.626;2024-02-28T09:42:56;30.37;;;20.17;;
8312;SDS011;4194;43.408;24.626;2024-02-28T09:45:29;32.43;;;19.97;;
8312;SDS011;4194;43.408;24.626;2024-02-28T09:47:59;36.63;;;21.20;;
8312;SDS011;4194;43.408;24.626;2024-02-28T09:50:26;32.13;;;20.53;;
8312;SDS011;4194;43.408;24.626;2024-02-28T09:52:53;28.17;;;18.87;;
8312;SDS011;4194;43.408;24.626;2024-02-28T09:55:19;33.57;;;20.07;;
8312;SDS011;4194;43.408;24.626;2024-02-28T09:57:48;35.30;;;22.23;;
8312;SDS011;4194;43.408;24.626;2024-02-28T10:00:16;32.77;;;20.17;;
8312;SDS011;4194;43.408;24.626;2024-02-28T10:02:47;25.20;;;18.27;;
8312;SDS011;4194;43.408;24.626;2024-02-28T10:05:16;36.97;;;20.33;;
8312;SDS011;4194;43.408;24.626;2024-02-28T10:07:44;31.23;;;20.43;;
8312;SDS011;4194;43.408;24.626;2024-02-28T10:10:12;29.30;;;19.20;;
8312;SDS011;4194;43.408;24.626;2024-02-28T10:12:41;27.00;;;17.50;;
8312;SDS011;4194;43.408;24.626;2024-02-28T10:15:08;26.13;;;17.37;;
8312;SDS011;4194;43.408;24.626;2024-02-28T10:17:35;32.67;;;17.87;;
8312;SDS011;4194;43.408;24.626;2024-02-28T10:20:00;24.77;;;18.30;;
8312;SDS011;4194;43.408;24.626;2024-02-28T10:22:33;25.00;;;16.93;;
8312;SDS011;4194;43.408;24.626;2024-02-28T10:25:02;22.27;;;17.47;;
8312;SDS011;4194;43.408;24.626;2024-02-28T10:27:31;30.43;;;18.67;;
8312;SDS011;4194;43.408;24.626;2024-02-28T10:29:58;24.77;;;17.30;;
8312;SDS011;4194;43.408;24.626;2024-02-28T10:32:23;24.83;;;17.93;;
8312;SDS011;4194;43.408;24.626;2024-02-28T10:34:49;28.73;;;19.07;;
8312;SDS011;4194;43.408;24.626;2024-02-28T10:37:15;32.83;;;19.30;;
8312;SDS011;4194;43.408;24.626;2024-02-28T10:39:42;29.17;;;17.83;;
8312;SDS011;4194;43.408;24.626;2024-02-28T10:42:09;22.03;;;16.80;;
8312;SDS011;4194;43.408;24.626;2024-02-28T10:44:38;22.90;;;16.70;;
8312;SDS011;4194;43.408;24.626;2024-02-28T10:47:07;24.03;;;16.47;;
8312;SDS011;4194;43.408;24.626;2024-02-28T10:49:33;22.90;;;17.00;;
8312;SDS011;4194;43.408;24.626;2024-02-28T10:51:59;25.93;;;16.40;;
8312;SDS011;4194;43.408;24.626;2024-02-28T10:54:24;24.60;;;15.97;;
8312;SDS011;4194;43.408;24.626;2024-02-28T10:56:53;24.27;;;17.53;;
8312;SDS011;4194;43.408;24.626;2024-02-28T10:59:19;25.37;;;16.47;;
8312;SDS011;4194;43.408;24.626;2024-02-28T11:01:48;22.43;;;16.17;;
8312;SDS011;4194;43.408;24.626;2024-02-28T11:04:15;22.33;;;16.00;;
8312;SDS011;4194;43.408;24.626;2024-02-28T11:06:49;22.17;;;15.77;;
8312;SDS011;4194;43.408;24.626;2024-02-28T11:09:23;27.60;;;16.40;;
8312;SDS011;4194;43.408;24.626;2024-02-28T11:11:50;23.20;;;15.43;;
8312;SDS011;4194;43.408;24.626;2024-02-28T11:14:17;21.97;;;16.60;;
8312;SDS011;4194;43.408;24.626;2024-02-28T11:16:46;18.13;;;15.27;;
8312;SDS011;4194;43.408;24.626;2024-02-28T11:19:19;27.53;;;16.80;;
8312;SDS011;4194;43.408;24.626;2024-02-28T11:21:54;22.90;;;16.43;;
8312;SDS011;4194;43.408;24.626;2024-02-28T11:24:23;22.93;;;16.33;;
8312;SDS011;4194;43.408;24.626;2024-02-28T11:26:52;22.90;;;16.07;;
8312;SDS011;4194;43.408;24.626;2024-02-28T11:29:28;24.73;;;16.23;;
8312;SDS011;4194;43.408;24.626;2024-02-28T11:31:54;21.70;;;16.07;;
8312;SDS011;4194;43.408;24.626;2024-02-28T11:34:20;25.20;;;16.77;;
8312;SDS011;4194;43.408;24.626;2024-02-28T11:36:47;24.63;;;16.23;;
8312;SDS011;4194;43.408;24.626;2024-02-28T11:39:14;23.63;;;16.03;;
8312;SDS011;4194;43.408;24.626;2024-02-28T11:41:40;22.60;;;16.87;;
8312;SDS011;4194;43.408;24.626;2024-02-28T11:44:06;26.23;;;15.70;;
8312;SDS011;4194;43.408;24.626;2024-02-28T11:46:32;21.33;;;15.93;;
8312;SDS011;4194;43.408;24.626;2024-02-28T11:48:58;26.50;;;17.23;;
8312;SDS011;4194;43.408;24.626;2024-02-28T11:51:26;23.10;;;17.60;;
8312;SDS011;4194;43.408;24.626;2024-02-28T11:53:52;24.30;;;14.87;;
8312;SDS011;4194;43.408;24.626;2024-02-28T11:56:17;21.13;;;14.93;;
8312;SDS011;4194;43.408;24.626;2024-02-28T11:58:52;18.27;;;14.33;;
8312;SDS011;4194;43.408;24.626;2024-02-28T12:01:19;23.53;;;15.57;;
8312;SDS011;4194;43.408;24.626;2024-02-28T12:03:56;22.30;;;14.00;;
8312;SDS011;4194;43.408;24.626;2024-02-28T12:06:23;21.67;;;14.20;;
8312;SDS011;4194;43.408;24.626;2024-02-28T12:08:48;28.33;;;17.43;;
8312;SDS011;4194;43.408;24.626;2024-02-28T12:11:15;20.70;;;15.87;;
8312;SDS011;4194;43.408;24.626;2024-02-28T12:13:40;22.70;;;16.10;;
8312;SDS011;4194;43.408;24.626;2024-02-28T12:16:07;23.90;;;14.23;;
8312;SDS011;4194;43.408;24.626;2024-02-28T12:18:34;20.20;;;13.93;;
8312;SDS011;4194;43.408;24.626;2024-02-28T12:21:01;24.17;;;14.57;;
8312;SDS011;4194;43.408;24.626;2024-02-28T12:23:27;20.63;;;13.80;;
8312;SDS011;4194;43.408;24.626;2024-02-28T12:25:53;21.87;;;14.10;;
8312;SDS011;4194;43.408;24.626;2024-02-28T12:28:18;27.03;;;14.57;;
8312;SDS011;4194;43.408;24.626;2024-02-28T12:30:44;17.27;;;13.47;;
8312;SDS011;4194;43.408;24.626;2024-02-28T12:33:10;21.73;;;13.73;;
8312;SDS011;4194;43.408;24.626;2024-02-28T12:35:39;19.03;;;13.90;;
8312;SDS011;4194;43.408;24.626;2024-02-28T12:38:06;24.03;;;14.10;;
8312;SDS011;4194;43.408;24.626;2024-02-28T12:40:32;19.60;;;13.97;;
8312;SDS011;4194;43.408;24.626;2024-02-28T12:42:58;17.63;;;13.67;;
8312;SDS011;4194;43.408;24.626;2024-02-28T12:45:23;24.57;;;14.73;;
8312;SDS011;4194;43.408;24.626;2024-02-28T12:47:49;23.47;;;14.10;;
8312;SDS011;4194;43.408;24.626;2024-02-28T12:50:15;18.97;;;13.03;;
8312;SDS011;4194;43.408;24.626;2024-02-28T12:52:40;22.43;;;13.60;;
8312;SDS011;4194;43.408;24.626;2024-02-28T12:55:06;21.00;;;12.47;;
8312;SDS011;4194;43.408;24.626;2024-02-28T12:57:32;19.43;;;12.47;;
8312;SDS011;4194;43.408;24.626;2024-02-28T12:59:58;15.67;;;11.07;;
8312;SDS011;4194;43.408;24.626;2024-02-28T13:02:23;17.40;;;12.43;;
8312;SDS011;4194;43.408;24.626;2024-02-28T13:04:49;24.53;;;15.43;;
8312;SDS011;4194;43.408;24.626;2024-02-28T13:07:15;15.93;;;11.80;;
8312;SDS011;4194;43.408;24.626;2024-02-28T13:09:41;17.40;;;12.20;;
8312;SDS011;4194;43.408;24.626;2024-02-28T13:12:07;17.07;;;11.90;;
8312;SDS011;4194;43.408;24.626;2024-02-28T13:14:33;16.47;;;11.70;;
8312;SDS011;4194;43.408;24.626;2024-02-28T13:16:59;15.63;;;11.13;;
8312;SDS011;4194;43.408;24.626;2024-02-28T13:19:25;17.70;;;11.52;;
8312;SDS011;4194;43.408;24.626;2024-02-28T13:21:50;16.80;;;10.82;;
8312;SDS011;4194;43.408;24.626;2024-02-28T13:24:16;14.82;;;11.75;;
8312;SDS011;4194;43.408;24.626;2024-02-28T13:26:42;17.67;;;10.85;;
8312;SDS011;4194;43.408;24.626;2024-02-28T13:29:07;17.10;;;11.95;;
8312;SDS011;4194;43.408;24.626;2024-02-28T13:31:34;25.80;;;11.47;;
8312;SDS011;4194;43.408;24.626;2024-02-28T13:34:00;14.07;;;11.97;;
8312;SDS011;4194;43.408;24.626;2024-02-28T13:36:28;15.55;;;10.73;;
8312;SDS011;4194;43.408;24.626;2024-02-28T13:38:54;15.15;;;11.65;;
8312;SDS011;4194;43.408;24.626;2024-02-28T13:41:19;17.80;;;11.07;;
8312;SDS011;4194;43.408;24.626;2024-02-28T13:43:45;15.63;;;11.90;;
8312;SDS011;4194;43.408;24.626;2024-02-28T13:46:11;22.10;;;12.50;;
8312;SDS011;4194;43.408;24.626;2024-02-28T13:48:37;19.60;;;11.67;;
8312;SDS011;4194;43.408;24.626;2024-02-28T13:51:02;20.30;;;12.37;;
8312;SDS011;4194;43.408;24.626;2024-02-28T13:53:29;17.07;;;12.03;;
8312;SDS011;4194;43.408;24.626;2024-02-28T13:55:55;17.87;;;11.97;;
8312;SDS011;4194;43.408;24.626;2024-02-28T13:58:20;16.50;;;12.30;;
8312;SDS011;4194;43.408;24.626;2024-02-28T14:00:46;18.43;;;13.30;;
8312;SDS011;4194;43.408;24.626;2024-02-28T14:03:12;15.57;;;12.53;;
8312;SDS011;4194;43.408;24.626;2024-02-28T14:05:38;17.07;;;11.30;;
8312;SDS011;4194;43.408;24.626;2024-02-28T14:08:04;12.37;;;10.77;;
8312;SDS011;4194;43.408;24.626;2024-02-28T14:10:33;16.23;;;9.57;;
8312;SDS011;4194;43.408;24.626;2024-02-28T14:12:59;12.80;;;9.43;;
8312;SDS011;4194;43.408;24.626;2024-02-28T14:15:25;12.87;;;9.63;;
8312;SDS011;4194;43.408;24.626;2024-02-28T14:17:50;15.17;;;7.97;;
8312;SDS011;4194;43.408;24.626;2024-02-28T14:20:17;11.33;;;7.80;;
8312;SDS011;4194;43.408;24.626;2024-02-28T14:22:43;13.03;;;8.77;;
8312;SDS011;4194;43.408;24.626;2024-02-28T14:25:12;13.20;;;9.90;;
8312;SDS011;4194;43.408;24.626;2024-02-28T14:27:43;12.40;;;8.27;;
8312;SDS011;4194;43.408;24.626;2024-02-28T14:30:10;17.10;;;8.23;;